sensor_id;sensor_type;location;lat;lon;timestamp;P1;durP1;ratioP1;P2;durP2;ratioP2
47513;SDS011;33951;51.988;5.910;2022-10-13T05:09:47;26.65;;;15.45;;
47513;SDS011;33951;51.988;5.910;2022-10-13T05:12:23;25.90;;;16.48;;
47513;SDS011;33951;51.988;5.910;2022-10-13T05:25:02;20.70;;;13.57;;
47513;SDS011;33951;51.988;5.910;2022-10-13T05:28:12;26.27;;;16.48;;
47513;SDS011;33951;51.988;5.910;2022-10-13T05:31:09;28.90;;;14.70;;
47513;SDS011;33951;51.988;5.910;2022-10-13T05:34:20;26.02;;;14.60;;
47513;SDS011;33951;51.988;5.910;2022-10-13T05:37:35;23.48;;;14.77;;
47513;SDS011;33951;51.988;5.910;2022-10-13T05:40:28;22.73;;;14.93;;
47513;SDS011;33951;51.988;5.910;2022-10-13T05:43:13;22.98;;;14.55;;
47513;SDS011;33951;51.988;5.910;2022-10-13T05:46:37;30.00;;;16.05;;
47513;SDS011;33951;51.988;5.910;2022-10-13T05:49:37;23.85;;;15.20;;
47513;SDS011;33951;51.988;5.910;2022-10-13T05:52:25;25.30;;;16.27;;
47513;SDS011;33951;51.988;5.910;2022-10-13T06:05:38;25.73;;;15.93;;
47513;SDS011;33951;51.988;5.910;2022-10-13T06:14:56;23.90;;;14.65;;
47513;SDS011;33951;51.988;5.910;2022-10-13T06:27:45;24.38;;;15.20;;
47513;SDS011;33951;51.988;5.910;2022-10-13T06:30:30;30.50;;;16.88;;
47513;SDS011;33951;51.988;5.910;2022-10-13T06:33:43;34.58;;;16.38;;
47513;SDS011;33951;51.988;5.910;2022-10-13T06:36:55;25.08;;;16.55;;
47513;SDS011;33951;51.988;5.910;2022-10-13T06:50:14;24.38;;;15.55;;
47513;SDS011;33951;51.988;5.910;2022-10-13T06:52:53;24.45;;;15.85;;
47513;SDS011;33951;51.988;5.910;2022-10-13T06:55:23;25.25;;;14.57;;
47513;SDS011;33951;51.988;5.910;2022-10-13T06:57:54;35.70;;;16.35;;
47513;SDS011;33951;51.988;5.910;2022-10-13T07:00:29;26.27;;;15.77;;
47513;SDS011;33951;51.988;5.910;2022-10-13T07:03:19;19.23;;;15.40;;
47513;SDS011;33951;51.988;5.910;2022-10-13T07:05:49;28.67;;;16.63;;
47513;SDS011;33951;51.988;5.910;2022-10-13T07:08:59;28.85;;;15.13;;
47513;SDS011;33951;51.988;5.910;2022-10-13T07:11:32;23.17;;;14.90;;
47513;SDS011;33951;51.988;5.910;2022-10-13T07:14:04;26.58;;;16.65;;
47513;SDS011;33951;51.988;5.910;2022-10-13T07:16:39;27.50;;;17.42;;
47513;SDS011;33951;51.988;5.910;2022-10-13T07:19:08;23.10;;;17.02;;
47513;SDS011;33951;51.988;5.910;2022-10-13T07:21:46;28.60;;;16.65;;
47513;SDS011;33951;51.988;5.910;2022-10-13T07:24:14;28.35;;;16.60;;
47513;SDS011;33951;51.988;5.910;2022-10-13T07:26:40;27.73;;;15.95;;
47513;SDS011;33951;51.988;5.910;2022-10-13T07:29:34;24.30;;;16.13;;
47513;SDS011;33951;51.988;5.910;2022-10-13T07:32:04;32.63;;;18.20;;
47513;SDS011;33951;51.988;5.910;2022-10-13T07:34:33;24.50;;;16.35;;
47513;SDS011;33951;51.988;5.910;2022-10-13T07:36:58;29.95;;;17.45;;
47513;SDS011;33951;51.988;5.910;2022-10-13T07:39:34;29.40;;;17.55;;
47513;SDS011;33951;51.988;5.910;2022-10-13T07:42:09;34.00;;;18.13;;
47513;SDS011;33951;51.988;5.910;2022-10-13T07:44:35;27.25;;;17.40;;
47513;SDS011;33951;51.988;5.910;2022-10-13T07:47:01;30.95;;;18.60;;
47513;SDS011;33951;51.988;5.910;2022-10-13T07:49:27;26.88;;;19.33;;
47513;SDS011;33951;51.988;5.910;2022-10-13T07:52:04;30.88;;;19.70;;
47513;SDS011;33951;51.988;5.910;2022-10-13T07:54:42;36.53;;;20.38;;
47513;SDS011;33951;51.988;5.910;2022-10-13T07:57:08;32.45;;;18.58;;
47513;SDS011;33951;51.988;5.910;2022-10-13T07:59:34;30.65;;;17.55;;
47513;SDS011;33951;51.988;5.910;2022-10-13T08:01:59;25.85;;;17.63;;
47513;SDS011;33951;51.988;5.910;2022-10-13T08:04:32;27.25;;;17.80;;
47513;SDS011;33951;51.988;5.910;2022-10-13T08:06:58;36.97;;;20.48;;
47513;SDS011;33951;51.988;5.910;2022-10-13T08:09:27;33.05;;;18.77;;
47513;SDS011;33951;51.988;5.910;2022-10-13T08:11:53;29.63;;;18.77;;
47513;SDS011;33951;51.988;5.910;2022-10-13T08:14:21;33.40;;;17.83;;
47513;SDS011;33951;51.988;5.910;2022-10-13T08:16:47;31.67;;;17.98;;
47513;SDS011;33951;51.988;5.910;2022-10-13T08:19:16;32.20;;;18.98;;
47513;SDS011;33951;51.988;5.910;2022-10-13T08:21:44;33.42;;;19.45;;
47513;SDS011;33951;51.988;5.910;2022-10-13T08:24:14;28.13;;;19.60;;
47513;SDS011;33951;51.988;5.910;2022-10-13T08:26:44;30.70;;;17.50;;
47513;SDS011;33951;51.988;5.910;2022-10-13T08:29:14;29.27;;;18.80;;
47513;SDS011;33951;51.988;5.910;2022-10-13T08:31:43;27.00;;;16.45;;
47513;SDS011;33951;51.988;5.910;2022-10-13T08:34:11;26.10;;;17.42;;
47513;SDS011;33951;51.988;5.910;2022-10-13T08:36:37;28.50;;;17.10;;
47513;SDS011;33951;51.988;5.910;2022-10-13T08:39:03;34.85;;;17.88;;
47513;SDS011;33951;51.988;5.910;2022-10-13T08:41:31;31.95;;;16.70;;
47513;SDS011;33951;51.988;5.910;2022-10-13T08:44:02;35.63;;;19.33;;
47513;SDS011;33951;51.988;5.910;2022-10-13T08:46:46;24.90;;;17.65;;
47513;SDS011;33951;51.988;5.910;2022-10-13T08:49:19;26.70;;;17.33;;
47513;SDS011;33951;51.988;5.910;2022-10-13T08:51:45;24.40;;;17.05;;
47513;SDS011;33951;51.988;5.910;2022-10-13T08:54:12;31.38;;;19.70;;
47513;SDS011;33951;51.988;5.910;2022-10-13T08:56:40;30.53;;;18.67;;
47513;SDS011;33951;51.988;5.910;2022-10-13T08:59:16;35.45;;;19.58;;
47513;SDS011;33951;51.988;5.910;2022-10-13T09:01:43;34.28;;;19.02;;
47513;SDS011;33951;51.988;5.910;2022-10-13T09:04:30;28.25;;;18.23;;
47513;SDS011;33951;51.988;5.910;2022-10-13T09:10:08;28.58;;;17.23;;
47513;SDS011;33951;51.988;5.910;2022-10-13T09:12:34;29.88;;;17.60;;
47513;SDS011;33951;51.988;5.910;2022-10-13T09:15:08;30.00;;;17.95;;
47513;SDS011;33951;51.988;5.910;2022-10-13T09:17:38;29.58;;;19.05;;
47513;SDS011;33951;51.988;5.910;2022-10-13T09:20:22;26.45;;;17.00;;
47513;SDS011;33951;51.988;5.910;2022-10-13T09:23:02;29.67;;;18.08;;
47513;SDS011;33951;51.988;5.910;2022-10-13T09:25:46;25.75;;;15.77;;
47513;SDS011;33951;51.988;5.910;2022-10-13T09:28:22;24.52;;;16.77;;
47513;SDS011;33951;51.988;5.910;2022-10-13T09:31:12;29.60;;;17.58;;
47513;SDS011;33951;51.988;5.910;2022-10-13T09:33:58;26.25;;;16.70;;
47513;SDS011;33951;51.988;5.910;2022-10-13T09:36:26;29.08;;;17.75;;
47513;SDS011;33951;51.988;5.910;2022-10-13T09:39:11;29.73;;;16.60;;
47513;SDS011;33951;51.988;5.910;2022-10-13T09:41:41;28.45;;;15.52;;
47513;SDS011;33951;51.988;5.910;2022-10-13T09:44:12;27.35;;;15.73;;
47513;SDS011;33951;51.988;5.910;2022-10-13T09:46:58;30.77;;;16.08;;
47513;SDS011;33951;51.988;5.910;2022-10-13T09:52:04;25.13;;;16.10;;
47513;SDS011;33951;51.988;5.910;2022-10-13T10:00:24;26.20;;;15.88;;
47513;SDS011;33951;51.988;5.910;2022-10-13T10:08:30;32.55;;;16.13;;
47513;SDS011;33951;51.988;5.910;2022-10-13T10:11:09;26.13;;;15.70;;
47513;SDS011;33951;51.988;5.910;2022-10-13T10:13:54;30.27;;;16.15;;
47513;SDS011;33951;51.988;5.910;2022-10-13T10:21:59;28.05;;;16.58;;
47513;SDS011;33951;51.988;5.910;2022-10-13T10:24:50;25.67;;;16.08;;
47513;SDS011;33951;51.988;5.910;2022-10-13T10:30:34;32.00;;;15.23;;
47513;SDS011;33951;51.988;5.910;2022-10-13T10:33:34;27.20;;;15.80;;
47513;SDS011;33951;51.988;5.910;2022-10-13T10:36:22;33.03;;;16.35;;
47513;SDS011;33951;51.988;5.910;2022-10-13T10:39:20;23.23;;;15.55;;
47513;SDS011;33951;51.988;5.910;2022-10-13T10:42:01;25.95;;;15.57;;
47513;SDS011;33951;51.988;5.910;2022-10-13T10:44:49;25.30;;;15.45;;
47513;SDS011;33951;51.988;5.910;2022-10-13T10:50:07;26.80;;;15.98;;
47513;SDS011;33951;51.988;5.910;2022-10-13T10:55:31;29.42;;;16.42;;
47513;SDS011;33951;51.988;5.910;2022-10-13T11:08:43;28.73;;;15.95;;
47513;SDS011;33951;51.988;5.910;2022-10-13T11:14:15;29.58;;;18.15;;
47513;SDS011;33951;51.988;5.910;2022-10-13T11:19:51;39.95;;;19.90;;
47513;SDS011;33951;51.988;5.910;2022-10-13T13:07:29;30.08;;;22.45;;
47513;SDS011;33951;51.988;5.910;2022-10-13T15:11:34;36.65;;;26.65;;
47513;SDS011;33951;51.988;5.910;2022-10-13T15:57:23;40.63;;;28.05;;
47513;SDS011;33951;51.988;5.910;2022-10-13T16:14:28;31.95;;;26.40;;
47513;SDS011;33951;51.988;5.910;2022-10-13T16:28:20;32.97;;;26.33;;
47513;SDS011;33951;51.988;5.910;2022-10-13T16:38:27;36.45;;;26.50;;
47513;SDS011;33951;51.988;5.910;2022-10-13T16:49:32;33.75;;;26.58;;
47513;SDS011;33951;51.988;5.910;2022-10-13T16:56:21;40.00;;;28.15;;
47513;SDS011;33951;51.988;5.910;2022-10-13T17:30:31;43.60;;;34.28;;
47513;SDS011;33951;51.988;5.910;2022-10-13T17:33:25;44.10;;;34.20;;
47513;SDS011;33951;51.988;5.910;2022-10-13T17:36:37;49.72;;;37.35;;
47513;SDS011;33951;51.988;5.910;2022-10-13T17:56:23;55.80;;;41.10;;
47513;SDS011;33951;51.988;5.910;2022-10-13T18:47:49;56.08;;;39.05;;
47513;SDS011;33951;51.988;5.910;2022-10-13T18:58:43;56.08;;;41.20;;
47513;SDS011;33951;51.988;5.910;2022-10-13T19:19:20;54.10;;;40.80;;
47513;SDS011;33951;51.988;5.910;2022-10-13T19:22:14;58.22;;;43.28;;
47513;SDS011;33951;51.988;5.910;2022-10-13T19:28:13;61.03;;;43.08;;
47513;SDS011;33951;51.988;5.910;2022-10-13T19:30:47;61.08;;;44.20;;
47513;SDS011;33951;51.988;5.910;2022-10-13T19:35:47;54.10;;;41.90;;
47513;SDS011;33951;51.988;5.910;2022-10-13T19:38:15;50.13;;;38.70;;
47513;SDS011;33951;51.988;5.910;2022-10-13T19:41:45;48.00;;;37.78;;
47513;SDS011;33951;51.988;5.910;2022-10-13T19:44:39;49.10;;;35.80;;
47513;SDS011;33951;51.988;5.910;2022-10-13T19:47:26;44.28;;;35.88;;
47513;SDS011;33951;51.988;5.910;2022-10-13T19:50:25;42.60;;;34.35;;
47513;SDS011;33951;51.988;5.910;2022-10-13T19:53:03;43.08;;;33.35;;
47513;SDS011;33951;51.988;5.910;2022-10-13T19:55:29;40.17;;;31.67;;
47513;SDS011;33951;51.988;5.910;2022-10-13T20:01:14;40.28;;;31.95;;
47513;SDS011;33951;51.988;5.910;2022-10-13T20:03:46;36.40;;;29.90;;
47513;SDS011;33951;51.988;5.910;2022-10-13T20:06:15;43.10;;;32.05;;
47513;SDS011;33951;51.988;5.910;2022-10-13T20:08:59;46.63;;;34.15;;
47513;SDS011;33951;51.988;5.910;2022-10-13T20:11:54;48.30;;;32.75;;
47513;SDS011;33951;51.988;5.910;2022-10-13T20:14:48;51.55;;;35.53;;
47513;SDS011;33951;51.988;5.910;2022-10-13T20:17:22;52.88;;;34.33;;
47513;SDS011;33951;51.988;5.910;2022-10-13T20:20:21;47.60;;;33.38;;
47513;SDS011;33951;51.988;5.910;2022-10-13T20:23:14;43.55;;;32.70;;
47513;SDS011;33951;51.988;5.910;2022-10-13T20:25:51;51.85;;;31.80;;
47513;SDS011;33951;51.988;5.910;2022-10-13T20:28:26;53.05;;;35.03;;
47513;SDS011;33951;51.988;5.910;2022-10-13T20:31:07;51.58;;;32.88;;
47513;SDS011;33951;51.988;5.910;2022-10-13T20:34:09;51.50;;;33.25;;
47513;SDS011;33951;51.988;5.910;2022-10-13T20:36:38;51.97;;;33.25;;
47513;SDS011;33951;51.988;5.910;2022-10-13T20:39:27;44.35;;;32.47;;
47513;SDS011;33951;51.988;5.910;2022-10-13T20:41:59;52.83;;;34.05;;
47513;SDS011;33951;51.988;5.910;2022-10-13T20:44:46;45.13;;;32.92;;
47513;SDS011;33951;51.988;5.910;2022-10-13T20:47:22;42.92;;;32.13;;
47513;SDS011;33951;51.988;5.910;2022-10-13T20:49:57;50.00;;;33.75;;
47513;SDS011;33951;51.988;5.910;2022-10-13T20:52:49;48.72;;;32.30;;
47513;SDS011;33951;51.988;5.910;2022-10-13T20:56:00;56.55;;;33.90;;
47513;SDS011;33951;51.988;5.910;2022-10-13T20:58:35;49.72;;;34.20;;
47513;SDS011;33951;51.988;5.910;2022-10-13T21:08:07;57.53;;;34.47;;
47513;SDS011;33951;51.988;5.910;2022-10-13T21:13:04;38.17;;;29.70;;
47513;SDS011;33951;51.988;5.910;2022-10-13T21:15:41;58.67;;;35.63;;
47513;SDS011;33951;51.988;5.910;2022-10-13T21:18:09;54.50;;;35.97;;
47513;SDS011;33951;51.988;5.910;2022-10-13T21:20:36;47.78;;;33.97;;
47513;SDS011;33951;51.988;5.910;2022-10-13T21:23:05;41.05;;;31.17;;
47513;SDS011;33951;51.988;5.910;2022-10-13T21:25:33;47.65;;;34.10;;
47513;SDS011;33951;51.988;5.910;2022-10-13T21:27:59;51.67;;;35.15;;
47513;SDS011;33951;51.988;5.910;2022-10-13T21:30:35;54.78;;;34.63;;
47513;SDS011;33951;51.988;5.910;2022-10-13T21:33:01;58.42;;;35.53;;
47513;SDS011;33951;51.988;5.910;2022-10-13T21:35:29;47.80;;;34.63;;
47513;SDS011;33951;51.988;5.910;2022-10-13T21:38:04;42.90;;;32.65;;
47513;SDS011;33951;51.988;5.910;2022-10-13T21:40:32;55.40;;;35.33;;
47513;SDS011;33951;51.988;5.910;2022-10-13T21:43:01;57.30;;;35.55;;
47513;SDS011;33951;51.988;5.910;2022-10-13T21:45:27;52.40;;;33.40;;
47513;SDS011;33951;51.988;5.910;2022-10-13T21:47:52;48.55;;;33.15;;
47513;SDS011;33951;51.988;5.910;2022-10-13T21:50:18;49.67;;;33.95;;
47513;SDS011;33951;51.988;5.910;2022-10-13T21:52:44;55.45;;;34.40;;
47513;SDS011;33951;51.988;5.910;2022-10-13T21:55:13;55.83;;;33.92;;
47513;SDS011;33951;51.988;5.910;2022-10-13T21:57:41;56.00;;;33.78;;
47513;SDS011;33951;51.988;5.910;2022-10-13T22:00:12;49.63;;;33.65;;
47513;SDS011;33951;51.988;5.910;2022-10-13T22:03:00;44.65;;;29.90;;
47513;SDS011;33951;51.988;5.910;2022-10-13T22:05:31;56.88;;;33.83;;
47513;SDS011;33951;51.988;5.910;2022-10-13T22:08:02;50.20;;;31.83;;
47513;SDS011;33951;51.988;5.910;2022-10-13T22:10:28;72.03;;;35.40;;
47513;SDS011;33951;51.988;5.910;2022-10-13T22:12:54;80.20;;;39.67;;
47513;SDS011;33951;51.988;5.910;2022-10-13T22:15:21;63.65;;;34.60;;
47513;SDS011;33951;51.988;5.910;2022-10-13T22:17:50;54.33;;;32.20;;
47513;SDS011;33951;51.988;5.910;2022-10-13T22:20:16;56.90;;;34.97;;
47513;SDS011;33951;51.988;5.910;2022-10-13T22:22:42;66.63;;;36.15;;
47513;SDS011;33951;51.988;5.910;2022-10-13T22:25:10;78.65;;;38.20;;
47513;SDS011;33951;51.988;5.910;2022-10-13T22:27:35;83.28;;;38.55;;
47513;SDS011;33951;51.988;5.910;2022-10-13T22:30:01;71.65;;;39.53;;
47513;SDS011;33951;51.988;5.910;2022-10-13T22:32:27;89.78;;;44.05;;
47513;SDS011;33951;51.988;5.910;2022-10-13T22:35:21;105.30;;;45.30;;
47513;SDS011;33951;51.988;5.910;2022-10-13T22:37:46;109.78;;;46.35;;
47513;SDS011;33951;51.988;5.910;2022-10-13T22:40:12;114.72;;;49.20;;
47513;SDS011;33951;51.988;5.910;2022-10-13T22:42:38;100.13;;;45.72;;
47513;SDS011;33951;51.988;5.910;2022-10-13T22:45:04;91.35;;;43.85;;
47513;SDS011;33951;51.988;5.910;2022-10-13T22:47:41;92.80;;;43.22;;
47513;SDS011;33951;51.988;5.910;2022-10-13T22:50:09;118.25;;;46.92;;
47513;SDS011;33951;51.988;5.910;2022-10-13T22:52:37;129.48;;;48.95;;
47513;SDS011;33951;51.988;5.910;2022-10-13T22:55:08;76.95;;;41.50;;
47513;SDS011;33951;51.988;5.910;2022-10-13T22:57:34;87.32;;;41.92;;
47513;SDS011;33951;51.988;5.910;2022-10-13T23:00:00;94.82;;;45.55;;
47513;SDS011;33951;51.988;5.910;2022-10-13T23:02:27;129.63;;;50.08;;
47513;SDS011;33951;51.988;5.910;2022-10-13T23:04:53;114.43;;;47.17;;
47513;SDS011;33951;51.988;5.910;2022-10-13T23:07:29;86.05;;;43.65;;
47513;SDS011;33951;51.988;5.910;2022-10-13T23:09:57;85.65;;;46.13;;
47513;SDS011;33951;51.988;5.910;2022-10-13T23:12:25;93.70;;;46.28;;
47513;SDS011;33951;51.988;5.910;2022-10-13T23:14:50;198.43;;;52.45;;
47513;SDS011;33951;51.988;5.910;2022-10-13T23:17:22;83.90;;;43.45;;
47513;SDS011;33951;51.988;5.910;2022-10-13T23:19:47;126.95;;;43.53;;
47513;SDS011;33951;51.988;5.910;2022-10-13T23:22:20;77.07;;;38.15;;
47513;SDS011;33951;51.988;5.910;2022-10-13T23:24:48;67.72;;;36.28;;
47513;SDS011;33951;51.988;5.910;2022-10-13T23:27:14;95.72;;;43.95;;
47513;SDS011;33951;51.988;5.910;2022-10-13T23:29:40;72.70;;;39.33;;
47513;SDS011;33951;51.988;5.910;2022-10-13T23:32:08;222.35;;;51.03;;
47513;SDS011;33951;51.988;5.910;2022-10-13T23:34:38;98.47;;;44.53;;
47513;SDS011;33951;51.988;5.910;2022-10-13T23:37:06;80.38;;;38.97;;
47513;SDS011;33951;51.988;5.910;2022-10-13T23:39:32;73.95;;;38.25;;
47513;SDS011;33951;51.988;5.910;2022-10-13T23:41:58;81.97;;;41.70;;
47513;SDS011;33951;51.988;5.910;2022-10-13T23:44:27;58.33;;;34.90;;
47513;SDS011;33951;51.988;5.910;2022-10-13T23:47:02;67.45;;;38.28;;
47513;SDS011;33951;51.988;5.910;2022-10-13T23:49:27;67.88;;;38.10;;
47513;SDS011;33951;51.988;5.910;2022-10-13T23:51:56;75.22;;;37.65;;
47513;SDS011;33951;51.988;5.910;2022-10-13T23:54:22;62.15;;;34.97;;
47513;SDS011;33951;51.988;5.910;2022-10-13T23:56:47;64.72;;;36.20;;
47513;SDS011;33951;51.988;5.910;2022-10-13T23:59:18;66.57;;;36.38;;
